createdAt,value
2023-03-24T00:00:34.547Z,2.70
2023-03-24T00:03:02.747Z,2.28
2023-03-24T00:05:30.584Z,2.40
2023-03-24T00:08:02.090Z,2.65
2023-03-24T00:10:34.583Z,2.10
2023-03-24T00:13:02.103Z,2.42
2023-03-24T00:15:29.551Z,2.38
2023-03-24T00:17:58.023Z,2.70
2023-03-24T00:20:26.908Z,2.22
2023-03-24T00:22:59.345Z,2.17
2023-03-24T00:25:36.221Z,2.10
2023-03-24T00:28:05.929Z,2.22
2023-03-24T00:30:34.991Z,2.65
2023-03-24T00:33:02.306Z,2.10
2023-03-24T00:35:29.571Z,2.60
2023-03-24T00:37:56.515Z,2.10
2023-03-24T00:40:28.802Z,2.53
2023-03-24T00:42:55.651Z,2.30
2023-03-24T00:45:25.832Z,2.28
2023-03-24T00:47:57.872Z,2.33
2023-03-24T00:50:26.479Z,2.35
2023-03-24T00:52:55.508Z,2.47
2023-03-24T00:55:22.958Z,2.67
2023-03-24T00:57:51.021Z,2.50
2023-03-24T01:00:23.950Z,2.63
2023-03-24T01:02:54.533Z,2.50
2023-03-24T01:05:25.610Z,2.80
2023-03-24T01:07:53.593Z,2.30
2023-03-24T01:10:26.409Z,2.08
2023-03-24T01:12:58.237Z,2.50
2023-03-24T01:15:30.239Z,2.03
2023-03-24T01:17:57.795Z,2.53
2023-03-24T01:20:25.468Z,2.40
2023-03-24T01:22:52.759Z,2.72
2023-03-24T01:25:24.201Z,2.53
2023-03-24T01:27:53.467Z,2.40
2023-03-24T01:30:24.883Z,2.55
2023-03-24T01:32:53.338Z,2.75
2023-03-24T01:35:22.733Z,2.72
2023-03-24T01:37:50.121Z,2.70
2023-03-24T01:40:22.774Z,2.42
2023-03-24T01:42:51.326Z,2.38
2023-03-24T01:45:40.098Z,2.33
2023-03-24T01:48:30.650Z,2.53
2023-03-24T01:51:08.561Z,2.60
2023-03-24T01:53:48.898Z,2.45
2023-03-24T01:56:15.922Z,2.78
2023-03-24T01:58:52.223Z,2.50
2023-03-24T02:01:20.285Z,2.65
2023-03-24T02:03:48.422Z,2.80
2023-03-24T02:06:18.510Z,2.78
2023-03-24T02:08:55.240Z,2.80
2023-03-24T02:11:26.924Z,2.47
2023-03-24T02:13:53.931Z,2.63
2023-03-24T02:16:38.756Z,2.60
2023-03-24T02:19:47.619Z,2.60
2023-03-24T02:22:29.796Z,2.50
2023-03-24T02:25:10.577Z,2.72
2023-03-24T02:28:20.393Z,2.20
2023-03-24T02:31:16.257Z,2.63
2023-03-24T02:34:26.301Z,2.85
2023-03-24T02:37:21.276Z,2.65
2023-03-24T02:40:08.269Z,3.20
2023-03-24T02:43:02.974Z,2.85
2023-03-24T02:45:37.357Z,2.72
2023-03-24T02:48:27.581Z,2.88
2023-03-24T02:51:14.832Z,3.08
2023-03-24T02:54:19.953Z,3.10
2023-03-24T02:56:55.878Z,3.47
2023-03-24T02:59:39.059Z,3.80
2023-03-24T03:02:14.514Z,4.05
2023-03-24T03:04:52.348Z,4.25
2023-03-24T03:07:26.903Z,3.80
2023-03-24T03:10:02.457Z,3.88
2023-03-24T03:12:36.823Z,4.13
2023-03-24T03:15:13.999Z,4.20
2023-03-24T03:18:20.169Z,3.60
2023-03-24T03:20:54.668Z,4.63
2023-03-24T03:23:37.775Z,4.55
2023-03-24T03:26:12.427Z,4.63
2023-03-24T03:28:49.756Z,4.40
2023-03-24T03:31:30.040Z,4.82
2023-03-24T03:34:02.096Z,4.10
2023-03-24T03:36:43.935Z,4.35
2023-03-24T03:39:40.692Z,4.70
2023-03-24T03:42:07.728Z,4.55
2023-03-24T03:44:34.755Z,4.35
2023-03-24T03:47:02.032Z,4.97
2023-03-24T03:49:28.882Z,4.82
2023-03-24T03:51:57.322Z,4.95
2023-03-24T03:54:28.671Z,5.38
2023-03-24T03:56:56.482Z,4.80
2023-03-24T03:59:34.968Z,3.53
2023-03-24T04:02:34.006Z,4.28
2023-03-24T04:05:30.339Z,5.70
2023-03-24T04:08:21.916Z,4.85
2023-03-24T04:11:02.300Z,5.53
2023-03-24T04:14:18.437Z,4.80
2023-03-24T04:17:03.221Z,5.68
2023-03-24T04:19:46.565Z,5.65
2023-03-24T04:22:50.876Z,5.72
2023-03-24T04:25:35.138Z,4.97
2023-03-24T04:28:14.287Z,5.80
2023-03-24T04:30:50.408Z,6.15
2023-03-24T04:34:12.188Z,4.55
2023-03-24T04:36:55.068Z,6.15
2023-03-24T04:39:28.240Z,6.43
2023-03-24T04:42:07.378Z,6.47
2023-03-24T04:44:38.162Z,6.28
2023-03-24T04:47:07.584Z,4.80
2023-03-24T04:49:39.227Z,5.88
2023-03-24T04:52:07.992Z,5.10
2023-03-24T04:54:34.900Z,6.00
2023-03-24T04:57:02.171Z,5.68
2023-03-24T04:59:33.920Z,5.72
2023-03-24T05:02:02.129Z,5.38
2023-03-24T05:04:30.381Z,5.45
2023-03-24T05:06:57.288Z,5.10
2023-03-24T05:09:25.833Z,5.85
2023-03-24T05:11:53.098Z,5.80
2023-03-24T05:14:20.366Z,6.20
2023-03-24T05:16:47.267Z,4.10
2023-03-24T05:19:14.276Z,5.40
2023-03-24T05:21:41.430Z,5.32
2023-03-24T05:24:08.760Z,4.28
2023-03-24T05:26:35.896Z,5.53
2023-03-24T05:29:02.855Z,5.97
2023-03-24T05:31:29.702Z,5.40
2023-03-24T05:33:56.657Z,4.82
2023-03-24T05:36:23.694Z,5.30
2023-03-24T05:38:50.656Z,3.70
2023-03-24T05:41:17.442Z,5.80
2023-03-24T05:43:44.298Z,5.38
2023-03-24T05:46:11.204Z,5.25
2023-03-24T05:48:38.084Z,4.97
2023-03-24T05:51:05.169Z,4.85
2023-03-24T05:53:32.163Z,4.53
2023-03-24T05:55:59.028Z,3.53
2023-03-24T05:58:25.841Z,2.70
2023-03-24T06:00:54.492Z,2.03
2023-03-24T06:03:21.495Z,1.80
2023-03-24T06:05:49.320Z,1.58
2023-03-24T06:08:16.920Z,1.40
2023-03-24T06:10:43.843Z,1.23
2023-03-24T06:13:11.145Z,1.23
2023-03-24T06:15:39.626Z,1.20
2023-03-24T06:18:07.910Z,1.15
2023-03-24T06:20:36.089Z,1.48
2023-03-24T06:23:03.385Z,1.17
2023-03-24T06:25:30.233Z,1.70
2023-03-24T06:28:05.791Z,1.80
2023-03-24T06:30:32.599Z,1.90
2023-03-24T06:33:00.157Z,1.75
2023-03-24T06:35:27.116Z,1.85
2023-03-24T06:37:53.902Z,1.90
2023-03-24T06:40:20.867Z,2.03
2023-03-24T06:42:49.675Z,2.38
2023-03-24T06:45:16.713Z,2.22
2023-03-24T06:47:43.615Z,2.10
2023-03-24T06:50:11.117Z,2.35
2023-03-24T06:52:37.969Z,2.20
2023-03-24T06:55:06.318Z,2.45
2023-03-24T06:57:33.183Z,2.45
2023-03-24T06:59:59.971Z,2.70
2023-03-24T07:02:34.429Z,2.95
2023-03-24T07:05:07.221Z,2.22
2023-03-24T07:08:08.337Z,2.72
2023-03-24T07:10:22.603Z,2.67
2023-03-24T07:12:49.427Z,2.30
2023-03-24T07:15:16.363Z,3.25
2023-03-24T07:17:43.346Z,2.85
2023-03-24T07:20:10.678Z,2.63
2023-03-24T07:22:38.045Z,2.40
2023-03-24T07:25:06.470Z,2.00
2023-03-24T07:27:34.215Z,3.05
2023-03-24T07:30:02.140Z,1.98
2023-03-24T07:32:34.669Z,1.92
2023-03-24T07:35:02.570Z,1.75
2023-03-24T07:37:29.454Z,1.60
2023-03-24T07:39:56.311Z,1.70
2023-03-24T07:42:23.157Z,1.50
2023-03-24T07:44:49.929Z,1.77
2023-03-24T07:47:17.585Z,1.80
2023-03-24T07:49:44.392Z,1.77
2023-03-24T07:52:11.372Z,1.80
2023-03-24T07:54:38.163Z,2.65
2023-03-24T07:57:05.036Z,2.50
2023-03-24T07:59:34.021Z,2.10
2023-03-24T08:02:01.177Z,2.55
2023-03-24T08:04:28.592Z,2.42
2023-03-24T08:06:55.573Z,2.60
2023-03-24T08:09:24.152Z,2.65
2023-03-24T08:11:51.403Z,2.88
2023-03-24T08:14:18.173Z,2.70
2023-03-24T08:16:46.269Z,3.13
2023-03-24T08:19:13.436Z,3.13
2023-03-24T08:21:40.771Z,3.05
2023-03-24T08:24:07.768Z,2.95
2023-03-24T08:26:35.330Z,2.88
2023-03-24T08:29:03.041Z,2.80
2023-03-24T08:31:36.730Z,3.08
2023-03-24T08:34:06.563Z,2.78
2023-03-24T08:36:33.680Z,2.70
2023-03-24T08:39:01.351Z,2.70
2023-03-24T08:41:34.855Z,2.80
2023-03-24T08:44:06.680Z,2.50
2023-03-24T08:46:34.890Z,2.67
2023-03-24T08:49:02.689Z,2.70
2023-03-24T08:51:31.261Z,2.45
2023-03-24T08:53:58.657Z,2.00
2023-03-24T08:56:25.901Z,2.78
2023-03-24T08:58:53.915Z,2.72
2023-03-24T09:01:22.852Z,2.40
2023-03-24T09:03:50.622Z,2.50
2023-03-24T09:06:17.530Z,3.55
2023-03-24T09:08:44.398Z,3.05
2023-03-24T09:11:18.255Z,4.80
2023-03-24T09:13:45.959Z,2.63
2023-03-24T09:16:12.838Z,2.80
2023-03-24T09:18:39.910Z,2.63
2023-03-24T09:21:08.064Z,3.17
2023-03-24T09:23:36.191Z,2.78
2023-03-24T09:26:04.124Z,2.88
2023-03-24T09:28:31.523Z,2.67
2023-03-24T09:31:05.469Z,2.90
2023-03-24T09:33:34.705Z,3.00
2023-03-24T09:36:03.804Z,3.08
2023-03-24T09:38:31.042Z,3.10
2023-03-24T09:41:03.583Z,3.08
2023-03-24T09:43:55.133Z,3.13
2023-03-24T09:46:51.199Z,4.28
2023-03-24T09:49:27.094Z,3.20
2023-03-24T09:52:12.225Z,3.05
2023-03-24T09:54:55.637Z,2.60
2023-03-24T09:57:37.966Z,2.65
2023-03-24T10:00:27.852Z,3.00
2023-03-24T10:03:01.406Z,2.90
2023-03-24T10:05:57.331Z,2.70
2023-03-24T10:08:33.633Z,2.20
2023-03-24T10:11:30.544Z,2.50
2023-03-24T10:14:24.182Z,2.67
2023-03-24T10:17:18.114Z,2.60
2023-03-24T10:19:50.974Z,1.75
2023-03-24T10:22:45.868Z,2.70
2023-03-24T10:26:09.843Z,2.47
2023-03-24T10:28:53.001Z,2.10
2023-03-24T10:31:31.780Z,2.08
2023-03-24T10:33:59.473Z,2.55
2023-03-24T10:36:28.856Z,2.22
2023-03-24T10:38:57.476Z,2.42
2023-03-24T10:41:29.343Z,2.30
2023-03-24T10:43:59.234Z,2.15
2023-03-24T10:46:31.354Z,2.47
2023-03-24T10:49:12.142Z,2.20
2023-03-24T10:51:41.251Z,2.00
2023-03-24T10:54:32.963Z,1.90
2023-03-24T10:57:05.500Z,2.08
2023-03-24T10:59:59.701Z,2.33
2023-03-24T11:02:32.056Z,2.08
2023-03-24T11:05:12.771Z,2.15
2023-03-24T11:07:44.930Z,2.55
2023-03-24T11:10:13.677Z,1.65
2023-03-24T11:12:44.223Z,1.50
2023-03-24T11:15:33.827Z,1.10
2023-03-24T11:18:21.090Z,1.20
2023-03-24T11:21:04.516Z,1.58
2023-03-24T11:23:45.697Z,1.65
2023-03-24T11:26:24.018Z,1.90
2023-03-24T11:29:01.918Z,1.70
2023-03-24T11:31:38.280Z,1.92
2023-03-24T11:34:19.888Z,1.60
2023-03-24T11:37:00.338Z,1.45
2023-03-24T11:39:31.489Z,1.75
2023-03-24T11:42:10.539Z,1.30
2023-03-24T11:44:53.456Z,1.20
2023-03-24T11:47:33.283Z,1.60
2023-03-24T11:50:09.478Z,1.30
2023-03-24T11:52:51.133Z,1.27
2023-03-24T11:55:48.303Z,1.08
2023-03-24T11:58:31.771Z,0.88
2023-03-24T12:01:07.817Z,1.20
2023-03-24T12:04:05.691Z,1.00
2023-03-24T12:06:53.722Z,0.90
2023-03-24T12:09:34.063Z,1.00
2023-03-24T12:12:42.477Z,1.13
2023-03-24T12:15:57.134Z,1.27
2023-03-24T12:18:48.081Z,1.27
2023-03-24T12:21:45.734Z,1.13
2023-03-24T12:25:04.179Z,0.90
2023-03-24T12:28:10.132Z,1.38
2023-03-24T12:31:30.082Z,1.10
2023-03-24T12:34:37.954Z,1.00
2023-03-24T12:37:49.773Z,1.25
2023-03-24T12:41:02.520Z,1.23
2023-03-24T12:43:52.554Z,1.10
2023-03-24T12:47:25.765Z,1.35
2023-03-24T12:50:29.071Z,0.95
2023-03-24T12:53:14.321Z,1.48
2023-03-24T12:56:04.047Z,1.27
2023-03-24T12:58:49.781Z,1.00
2023-03-24T13:01:37.427Z,4.40
2023-03-24T13:04:30.450Z,1.27
2023-03-24T13:07:12.577Z,2.15
2023-03-24T13:09:46.917Z,1.20
2023-03-24T13:12:22.309Z,1.10
2023-03-24T13:15:13.056Z,1.00
2023-03-24T13:17:53.589Z,0.82
2023-03-24T13:20:35.238Z,0.70
2023-03-24T13:23:38.118Z,1.00
2023-03-24T13:26:38.960Z,0.93
2023-03-24T13:29:56.601Z,0.80
2023-03-24T13:32:32.057Z,0.82
2023-03-24T13:35:53.533Z,1.00
2023-03-24T13:39:06.231Z,0.80
2023-03-24T13:41:39.811Z,1.08
2023-03-24T13:44:20.784Z,1.10
2023-03-24T13:47:09.501Z,0.82
2023-03-24T13:49:36.771Z,0.90
2023-03-24T13:52:18.985Z,1.13
2023-03-24T13:54:48.787Z,0.60
2023-03-24T13:57:20.662Z,0.77
2023-03-24T14:00:26.419Z,0.75
2023-03-24T14:03:31.863Z,0.70
2023-03-24T14:06:05.391Z,0.82
2023-03-24T14:08:52.220Z,1.00
2023-03-24T14:11:34.597Z,0.90
2023-03-24T14:14:13.532Z,0.80
2023-03-24T14:16:50.344Z,0.73
2023-03-24T14:19:19.795Z,0.55
2023-03-24T14:22:04.437Z,0.75
2023-03-24T14:24:33.054Z,0.85
2023-03-24T14:27:00.195Z,0.50
2023-03-24T14:29:50.615Z,0.63
2023-03-24T14:32:22.863Z,0.60
2023-03-24T14:35:00.140Z,0.60
2023-03-24T14:37:29.113Z,0.55
2023-03-24T14:39:58.709Z,0.75
2023-03-24T14:42:34.462Z,0.50
2023-03-24T14:45:27.719Z,0.90
2023-03-24T14:48:01.015Z,0.60
2023-03-24T14:50:29.579Z,0.70
2023-03-24T14:53:03.323Z,0.70
2023-03-24T14:55:31.482Z,0.52
2023-03-24T14:58:09.906Z,0.68
2023-03-24T15:00:51.823Z,0.80
2023-03-24T15:03:40.233Z,0.65
2023-03-24T15:06:23.352Z,0.70
2023-03-24T15:08:59.614Z,0.68
2023-03-24T15:11:32.315Z,0.70
2023-03-24T15:14:22.131Z,0.68
2023-03-24T15:17:21.985Z,0.70
2023-03-24T15:19:54.604Z,0.80
2023-03-24T15:22:21.760Z,0.75
2023-03-24T15:24:52.974Z,0.95
2023-03-24T15:27:29.003Z,0.63
2023-03-24T15:29:59.924Z,0.90
2023-03-24T15:32:32.078Z,1.08
2023-03-24T15:35:08.789Z,0.52
2023-03-24T15:37:41.497Z,0.60
2023-03-24T15:40:31.533Z,0.65
2023-03-24T15:43:03.053Z,0.80
2023-03-24T15:45:35.233Z,0.60
2023-03-24T15:48:15.472Z,0.77
2023-03-24T15:51:00.784Z,0.90
2023-03-24T15:53:37.487Z,0.80
2023-03-24T15:56:18.160Z,1.02
2023-03-24T15:58:56.201Z,0.95
2023-03-24T16:01:36.175Z,0.70
2023-03-24T16:04:11.708Z,1.00
2023-03-24T16:06:48.678Z,0.80
2023-03-24T16:09:21.722Z,0.88
2023-03-24T16:11:49.198Z,0.70
2023-03-24T16:14:30.582Z,0.98
2023-03-24T16:17:02.161Z,0.63
2023-03-24T16:19:29.360Z,0.75
2023-03-24T16:21:58.009Z,0.90
2023-03-24T16:24:24.942Z,1.00
2023-03-24T16:26:51.775Z,0.60
2023-03-24T16:29:22.310Z,0.90
2023-03-24T16:31:52.855Z,0.80
2023-03-24T16:34:21.841Z,0.73
2023-03-24T16:36:52.346Z,0.90
2023-03-24T16:39:26.087Z,0.88
2023-03-24T16:41:53.412Z,0.90
2023-03-24T16:44:21.482Z,0.93
2023-03-24T16:46:53.890Z,0.70
2023-03-24T16:49:22.699Z,0.75
2023-03-24T16:51:50.614Z,0.85
2023-03-24T16:54:17.768Z,0.80
2023-03-24T16:56:44.612Z,1.08
2023-03-24T16:59:14.860Z,1.08
2023-03-24T17:01:45.791Z,0.90
2023-03-24T17:04:16.805Z,0.90
2023-03-24T17:06:52.758Z,0.80
2023-03-24T17:09:21.151Z,0.80
2023-03-24T17:11:55.306Z,1.10
2023-03-24T17:14:22.333Z,1.10
2023-03-24T17:16:51.202Z,1.10
2023-03-24T17:19:21.816Z,1.08
2023-03-24T17:22:03.050Z,1.70
2023-03-24T17:24:35.910Z,1.80
2023-03-24T17:27:03.884Z,1.52
2023-03-24T17:29:31.654Z,1.17
2023-03-24T17:31:58.533Z,0.60
2023-03-24T17:34:25.575Z,0.97
2023-03-24T17:36:52.418Z,1.00
2023-03-24T17:39:21.160Z,0.93
2023-03-24T17:41:48.044Z,0.80
2023-03-24T17:44:14.955Z,0.77
2023-03-24T17:46:41.928Z,1.00
2023-03-24T17:49:08.838Z,0.70
2023-03-24T17:51:35.765Z,1.00
2023-03-24T17:54:04.138Z,1.00
2023-03-24T17:56:31.450Z,1.07
2023-03-24T17:59:03.418Z,1.30
2023-03-24T18:01:30.849Z,1.10
2023-03-24T18:03:58.423Z,1.40
2023-03-24T18:06:27.285Z,1.13
2023-03-24T18:08:54.371Z,1.40
2023-03-24T18:11:21.227Z,2.43
2023-03-24T18:13:48.169Z,1.83
2023-03-24T18:18:46.735Z,3.85
2023-03-24T18:21:13.665Z,3.50
2023-03-24T18:23:40.538Z,3.83
2023-03-24T18:26:08.782Z,4.53
2023-03-24T18:28:38.723Z,2.58
2023-03-24T18:31:15.698Z,1.52
2023-03-24T18:33:45.965Z,1.40
2023-03-24T18:36:26.049Z,1.50
2023-03-24T18:39:12.035Z,1.70
2023-03-24T18:41:39.941Z,1.30
2023-03-24T18:44:12.250Z,1.27
2023-03-24T18:46:40.378Z,1.30
2023-03-24T18:49:07.936Z,1.37
2023-03-24T18:51:35.861Z,1.33
2023-03-24T18:54:02.669Z,1.20
2023-03-24T18:56:29.496Z,1.60
2023-03-24T18:58:56.394Z,1.33
2023-03-24T19:01:23.419Z,1.10
2023-03-24T19:03:52.609Z,1.20
2023-03-24T19:06:20.025Z,1.10
2023-03-24T19:08:52.119Z,1.00
2023-03-24T19:11:19.329Z,1.20
2023-03-24T19:13:49.653Z,1.30
2023-03-24T19:16:19.031Z,3.10
2023-03-24T19:18:48.412Z,2.13
2023-03-24T19:21:16.835Z,1.40
2023-03-24T19:23:46.600Z,1.73
2023-03-24T19:26:16.194Z,1.40
2023-03-24T19:28:43.801Z,1.50
2023-03-24T19:31:15.501Z,2.47
2023-03-24T19:33:42.453Z,2.87
2023-03-24T19:36:10.508Z,2.70
2023-03-24T19:38:39.189Z,2.80
2023-03-24T19:41:12.341Z,3.27
2023-03-24T19:43:39.545Z,2.67
2023-03-24T19:46:08.020Z,2.30
2023-03-24T19:48:35.826Z,1.63
2023-03-24T19:51:04.463Z,2.17
2023-03-24T19:53:31.946Z,1.70
2023-03-24T19:55:59.645Z,1.50
2023-03-24T19:58:26.662Z,1.80
2023-03-24T20:00:53.659Z,1.80
2023-03-24T20:03:21.123Z,1.80
2023-03-24T20:05:49.328Z,1.73
2023-03-24T20:08:16.602Z,1.80
2023-03-24T20:10:43.628Z,1.50
2023-03-24T20:13:10.652Z,1.80
2023-03-24T20:15:37.764Z,1.77
2023-03-24T20:18:05.130Z,2.37
2023-03-24T20:20:32.299Z,1.97
2023-03-24T20:22:59.078Z,3.03
2023-03-24T20:25:26.385Z,2.20
2023-03-24T20:27:54.049Z,2.30
2023-03-24T20:30:20.989Z,2.70
2023-03-24T20:32:48.292Z,2.13
2023-03-24T20:35:15.887Z,2.10
2023-03-24T20:37:43.045Z,2.17
2023-03-24T20:40:10.524Z,1.97
2023-03-24T20:42:38.457Z,1.50
2023-03-24T20:45:08.222Z,2.10
2023-03-24T20:47:36.593Z,1.70
2023-03-24T20:50:06.105Z,1.37
2023-03-24T20:52:33.191Z,1.53
2023-03-24T20:55:01.498Z,1.77
2023-03-24T20:57:30.131Z,1.50
2023-03-24T20:59:57.106Z,1.83
2023-03-24T21:02:24.670Z,1.67
2023-03-24T21:04:51.660Z,1.70
2023-03-24T21:07:18.622Z,1.50
2023-03-24T21:09:45.474Z,1.70
2023-03-24T21:12:12.386Z,1.17
2023-03-24T21:14:40.958Z,1.30
2023-03-24T21:17:07.807Z,1.40
2023-03-24T21:19:34.700Z,1.10
2023-03-24T21:22:03.005Z,1.10
2023-03-24T21:24:29.892Z,0.87
2023-03-24T21:26:57.209Z,1.63
2023-03-24T21:29:25.985Z,1.03
2023-03-24T21:31:52.935Z,1.33
2023-03-24T21:34:19.786Z,1.17
2023-03-24T21:36:49.469Z,1.10
2023-03-24T21:39:17.143Z,0.90
2023-03-24T21:41:44.058Z,1.10
2023-03-24T21:44:11.129Z,0.60
2023-03-24T21:46:38.012Z,0.90
2023-03-24T21:49:05.427Z,1.07
2023-03-24T21:51:34.623Z,0.90
2023-03-24T21:54:04.557Z,0.80
2023-03-24T21:56:35.993Z,0.97
2023-03-24T21:59:02.830Z,0.83
2023-03-24T22:01:31.083Z,1.03
2023-03-24T22:03:58.749Z,1.30
2023-03-24T22:06:29.178Z,1.00
2023-03-24T22:08:58.346Z,0.87
2023-03-24T22:11:25.830Z,0.63
2023-03-24T22:13:52.975Z,1.07
2023-03-24T22:16:19.781Z,1.03
2023-03-24T22:18:47.393Z,0.90
2023-03-24T22:21:14.833Z,1.00
2023-03-24T22:23:42.798Z,1.00
2023-03-24T22:26:14.196Z,0.90
2023-03-24T22:28:43.160Z,0.90
2023-03-24T22:31:14.312Z,1.30
2023-03-24T22:33:41.536Z,0.70
2023-03-24T22:36:09.859Z,0.90
2023-03-24T22:38:36.822Z,1.40
2023-03-24T22:41:08.363Z,1.30
2023-03-24T22:43:36.380Z,2.63
2023-03-24T22:46:03.756Z,1.20
2023-03-24T22:48:31.311Z,1.47
2023-03-24T22:50:58.283Z,1.30
2023-03-24T22:53:25.132Z,3.10
2023-03-24T22:55:52.223Z,1.50
2023-03-24T22:58:19.467Z,1.30
2023-03-24T23:00:50.074Z,2.33
2023-03-24T23:03:17.074Z,1.40
2023-03-24T23:05:46.103Z,1.47
2023-03-24T23:08:15.588Z,1.77
2023-03-24T23:10:46.867Z,1.20
2023-03-24T23:13:13.825Z,1.13
2023-03-24T23:15:42.433Z,1.20
2023-03-24T23:18:10.382Z,1.10
2023-03-24T23:20:37.524Z,1.10
2023-03-24T23:23:06.852Z,1.10
2023-03-24T23:25:45.557Z,1.03
2023-03-24T23:28:13.490Z,0.90
2023-03-24T23:30:41.251Z,0.80
2023-03-24T23:33:08.950Z,1.00
2023-03-24T23:35:37.344Z,1.10
2023-03-24T23:38:05.404Z,1.20
2023-03-24T23:40:32.292Z,1.07
2023-03-24T23:43:00.344Z,1.03
2023-03-24T23:45:28.040Z,1.43
2023-03-24T23:47:54.983Z,0.90
2023-03-24T23:50:21.965Z,0.90
2023-03-24T23:52:48.822Z,0.80
2023-03-24T23:55:18.067Z,0.90
2023-03-24T23:57:45.504Z,0.70
